Time,TemperatureF,DewpointF,PressureIn,WindDirection,WindDirectionDegrees,WindSpeedMPH,WindSpeedGustMPH,Humidity,HourlyPrecipIn,Conditions,Clouds,dailyrainin,SolarRadiationWatts/m^2,SoftwareType,DateUTC
2013-10-02 00:01:00,47.0,43.0,-100.00,ESE,103,2.0,5.0,85,0.00,,,0.14,0.000000,,2013-10-02 07:01:00,
2013-10-02 00:42:00,47.0,41.0,-100.00,SE,132,3.0,5.0,78,0.00,,,0.14,0.000000,,2013-10-02 07:42:00,
2013-10-02 00:52:00,47.0,41.0,-100.00,SE,132,3.0,5.0,78,0.00,,,0.14,0.000000,,2013-10-02 07:52:00,
2013-10-02 01:03:00,47.0,41.0,-100.00,SE,132,3.0,5.0,78,0.00,,,0.14,0.000000,,2013-10-02 08:03:00,
2013-10-02 01:42:00,44.0,42.0,-100.00,SSE,156,5.0,6.0,91,0.00,,,0.14,0.000000,,2013-10-02 08:42:00,
2013-10-02 01:52:00,44.0,42.0,-100.00,SSE,156,5.0,6.0,91,0.00,,,0.14,0.000000,,2013-10-02 08:52:00,
2013-10-02 02:01:00,44.0,42.0,-100.00,SSE,156,5.0,6.0,91,0.00,,,0.14,0.000000,,2013-10-02 09:01:00,
2013-10-02 02:43:00,44.0,42.0,-100.00,SSE,158,5.0,8.0,91,0.00,,,0.14,0.000000,,2013-10-02 09:43:00,
2013-10-02 02:54:00,44.0,42.0,-100.00,SSE,158,5.0,8.0,91,0.00,,,0.14,0.000000,,2013-10-02 09:54:00,
2013-10-02 03:02:00,44.0,42.0,-100.00,SSE,158,5.0,8.0,91,0.00,,,0.14,0.000000,,2013-10-02 10:02:00,
2013-10-02 03:42:00,45.0,41.0,-100.00,SSE,152,4.0,7.0,87,0.00,,,0.14,0.000000,,2013-10-02 10:42:00,
2013-10-02 03:52:00,45.0,41.0,-100.00,SSE,152,4.0,7.0,87,0.00,,,0.14,0.000000,,2013-10-02 10:52:00,
2013-10-02 04:03:00,45.0,41.0,-100.00,SSE,152,4.0,7.0,87,0.00,,,0.14,0.000000,,2013-10-02 11:03:00,
2013-10-02 04:43:00,47.0,40.0,-100.00,ESE,122,3.0,6.0,77,0.00,,,0.14,0.000000,,2013-10-02 11:43:00,
2013-10-02 04:52:00,47.0,40.0,-100.00,ESE,122,3.0,6.0,77,0.00,,,0.14,0.000000,,2013-10-02 11:52:00,
2013-10-02 05:02:00,47.0,40.0,-100.00,ESE,122,3.0,6.0,77,0.00,,,0.14,0.000000,,2013-10-02 12:02:00,
2013-10-02 05:42:00,46.0,40.0,-100.00,SE,146,2.0,5.0,79,-99.99,,,0.14,0.000000,,2013-10-02 12:42:00,
2013-10-02 05:52:00,46.0,40.0,-100.00,SE,146,2.0,5.0,79,-99.99,,,0.14,0.000000,,2013-10-02 12:52:00,
2013-10-02 06:02:00,46.0,40.0,-100.00,SE,146,2.0,5.0,79,-99.99,,,0.14,0.000000,,2013-10-02 13:02:00,
2013-10-02 06:42:00,46.0,40.0,-100.00,SSE,155,2.0,4.0,78,0.00,,,0.13,0.000000,,2013-10-02 13:42:00,
2013-10-02 06:52:00,46.0,40.0,-100.00,SSE,155,2.0,4.0,78,0.00,,,0.13,0.000000,,2013-10-02 13:52:00,
2013-10-02 07:02:00,46.0,40.0,-100.00,SSE,155,2.0,4.0,78,0.00,,,0.13,0.000000,,2013-10-02 14:02:00,
2013-10-02 07:42:00,43.0,41.0,-100.00,South,171,4.0,6.0,91,0.00,,,0.11,0.000000,,2013-10-02 14:42:00,
2013-10-02 07:52:00,43.0,41.0,-100.00,South,171,4.0,6.0,91,0.00,,,0.11,0.000000,,2013-10-02 14:52:00,
2013-10-02 08:01:00,43.0,41.0,-100.00,South,171,4.0,6.0,91,0.00,,,0.11,0.000000,,2013-10-02 15:01:00,
2013-10-02 08:43:00,41.0,39.0,-100.00,South,171,5.0,6.0,94,0.00,,,0.11,38.000000,,2013-10-02 15:43:00,
2013-10-02 08:54:00,41.0,39.0,-100.00,South,171,5.0,6.0,94,0.00,,,0.11,38.000000,,2013-10-02 15:54:00,
2013-10-02 09:03:00,41.0,39.0,-100.00,South,171,5.0,6.0,94,0.00,,,0.11,38.000000,,2013-10-02 16:03:00,
2013-10-02 09:43:00,41.0,40.0,-100.00,South,171,4.0,8.0,95,0.00,,,0.10,128.000000,,2013-10-02 16:43:00,
2013-10-02 09:52:00,41.0,40.0,-100.00,South,171,4.0,8.0,95,0.00,,,0.10,128.000000,,2013-10-02 16:52:00,
2013-10-02 10:02:00,41.0,40.0,-100.00,South,171,4.0,8.0,95,0.00,,,0.10,128.000000,,2013-10-02 17:02:00,
2013-10-02 10:42:00,44.0,42.0,-100.00,South,174,3.0,6.0,94,0.00,,,0.09,149.000000,,2013-10-02 17:42:00,
2013-10-02 10:52:00,44.0,42.0,-100.00,South,174,3.0,6.0,94,0.00,,,0.09,149.000000,,2013-10-02 17:52:00,
2013-10-02 11:02:00,44.0,42.0,-100.00,South,174,3.0,6.0,94,0.00,,,0.09,149.000000,,2013-10-02 18:02:00,
2013-10-02 11:42:00,50.0,45.0,-100.00,South,180,2.0,6.0,84,0.00,,,0.00,254.000000,,2013-10-02 18:42:00,
2013-10-02 11:52:00,50.0,45.0,-100.00,South,180,2.0,6.0,84,0.00,,,0.00,254.000000,,2013-10-02 18:52:00,
2013-10-02 12:02:00,50.0,45.0,-100.00,South,180,2.0,6.0,84,0.00,,,0.00,254.000000,,2013-10-02 19:02:00,
2013-10-02 12:42:00,50.0,47.0,-100.00,South,178,2.0,6.0,88,0.00,,,0.00,322.000000,,2013-10-02 19:42:00,
2013-10-02 12:52:00,50.0,47.0,-100.00,South,178,2.0,6.0,88,0.00,,,0.00,322.000000,,2013-10-02 19:52:00,
2013-10-02 13:02:00,50.0,47.0,-100.00,South,178,2.0,6.0,88,0.00,,,0.00,322.000000,,2013-10-02 20:02:00,
2013-10-02 13:42:00,51.0,49.0,-100.00,NNW,342,2.0,8.0,92,0.02,,,0.02,236.000000,,2013-10-02 20:42:00,
2013-10-02 13:52:00,51.0,49.0,-100.00,NNW,342,2.0,8.0,92,0.02,,,0.02,236.000000,,2013-10-02 20:52:00,
2013-10-02 14:01:00,51.0,49.0,-100.00,NNW,342,2.0,8.0,92,0.02,,,0.02,236.000000,,2013-10-02 21:01:00,
2013-10-02 14:44:00,49.0,47.0,-100.00,WNW,295,2.0,6.0,94,0.06,,,0.08,156.000000,,2013-10-02 21:44:00,
2013-10-02 14:54:00,49.0,47.0,-100.00,WNW,295,2.0,6.0,94,0.06,,,0.08,156.000000,,2013-10-02 21:54:00,
2013-10-02 15:04:00,49.0,47.0,-100.00,WNW,295,2.0,6.0,94,0.06,,,0.08,156.000000,,2013-10-02 22:04:00,
2013-10-02 15:44:00,49.0,47.0,-100.00,NW,315,2.0,6.0,94,0.04,,,0.12,122.000000,,2013-10-02 22:44:00,
2013-10-02 15:53:00,49.0,47.0,-100.00,NW,315,2.0,6.0,94,0.04,,,0.12,122.000000,,2013-10-02 22:53:00,
2013-10-02 16:03:00,49.0,47.0,-100.00,NW,315,2.0,6.0,94,0.04,,,0.12,122.000000,,2013-10-02 23:03:00,
2013-10-02 16:42:00,52.0,49.0,-100.00,NW,322,4.0,8.0,91,0.04,,,-99.99,282.000000,,2013-10-02 23:42:00,
2013-10-02 16:52:00,52.0,49.0,-100.00,NW,322,4.0,8.0,91,0.04,,,-99.99,282.000000,,2013-10-02 23:52:00,
2013-10-02 17:02:00,52.0,49.0,-100.00,NW,322,4.0,8.0,91,0.04,,,-99.99,282.000000,,2013-10-03 00:02:00,
2013-10-02 17:42:00,52.0,49.0,-100.00,South,179,2.0,7.0,90,0.00,,,0.16,310.000000,,2013-10-03 00:42:00,
2013-10-02 17:52:00,52.0,49.0,-100.00,South,179,2.0,7.0,90,0.00,,,0.16,310.000000,,2013-10-03 00:52:00,
2013-10-02 18:02:00,52.0,49.0,-100.00,South,179,2.0,7.0,90,0.00,,,0.16,310.000000,,2013-10-03 01:02:00,
2013-10-02 18:42:00,47.0,46.0,-100.00,NW,323,5.0,10.0,95,0.15,,,0.31,42.000000,,2013-10-03 01:42:00,
2013-10-02 18:52:00,47.0,46.0,-100.00,NW,323,5.0,10.0,95,0.15,,,0.31,42.000000,,2013-10-03 01:52:00,
2013-10-02 19:01:00,47.0,46.0,-100.00,NW,323,5.0,10.0,95,0.15,,,0.31,42.000000,,2013-10-03 02:01:00,
2013-10-02 19:52:00,47.0,46.0,-100.00,NW,321,6.0,10.0,96,0.01,,,0.32,16.000000,,2013-10-03 02:52:00,
2013-10-02 20:03:00,47.0,46.0,-100.00,NW,321,6.0,10.0,96,0.01,,,0.32,16.000000,,2013-10-03 03:03:00,
2013-10-02 20:44:00,46.0,45.0,-100.00,NW,318,4.0,10.0,97,0.00,,,0.32,0.000000,,2013-10-03 03:44:00,
2013-10-02 20:54:00,46.0,45.0,-100.00,NW,318,4.0,10.0,97,0.00,,,0.32,0.000000,,2013-10-03 03:54:00,
2013-10-02 21:05:00,46.0,45.0,-100.00,NW,318,4.0,10.0,97,0.00,,,0.32,0.000000,,2013-10-03 04:05:00,
2013-10-02 21:44:00,46.0,45.0,-100.00,NW,318,4.0,6.0,98,0.01,,,0.33,0.000000,,2013-10-03 04:44:00,
2013-10-02 21:53:00,46.0,45.0,-100.00,NW,318,4.0,6.0,98,0.01,,,0.33,0.000000,,2013-10-03 04:53:00,
2013-10-02 22:04:00,46.0,45.0,-100.00,NW,318,4.0,6.0,98,0.01,,,0.33,0.000000,,2013-10-03 05:04:00,
2013-10-02 22:43:00,45.0,44.0,-100.00,West,278,4.0,8.0,98,0.04,,,0.37,0.000000,,2013-10-03 05:43:00,
2013-10-02 22:52:00,45.0,44.0,-100.00,West,278,4.0,8.0,98,0.04,,,0.37,0.000000,,2013-10-03 05:52:00,
2013-10-02 23:02:00,45.0,44.0,-100.00,West,278,4.0,8.0,98,0.04,,,0.37,0.000000,,2013-10-03 06:02:00,
2013-10-02 23:42:00,45.0,45.0,-100.00,NE,43,1.0,7.0,99,0.04,,,0.41,0.000000,,2013-10-03 06:42:00,
2013-10-02 23:52:00,45.0,45.0,-100.00,NE,43,1.0,7.0,99,0.04,,,0.41,0.000000,,2013-10-03 06:52:00,